createdAt,value
2022-10-05T00:00:59.026Z,100.00
2022-10-05T00:03:38.225Z,100.00
2022-10-05T00:06:07.051Z,100.00
2022-10-05T00:08:35.814Z,100.00
2022-10-05T00:11:07.177Z,100.00
2022-10-05T00:13:35.326Z,100.00
2022-10-05T00:16:17.303Z,100.00
2022-10-05T00:18:55.368Z,100.00
2022-10-05T00:21:25.923Z,100.00
2022-10-05T00:23:57.315Z,100.00
2022-10-05T00:26:28.044Z,100.00
2022-10-05T00:28:56.575Z,100.00
2022-10-05T00:31:27.383Z,100.00
2022-10-05T00:33:56.176Z,100.00
2022-10-05T00:36:26.493Z,100.00
2022-10-05T00:38:54.929Z,100.00
2022-10-05T00:41:31.673Z,100.00
2022-10-05T00:44:04.236Z,100.00
2022-10-05T00:47:02.540Z,100.00
2022-10-05T00:49:41.759Z,100.00
2022-10-05T00:52:37.955Z,100.00
2022-10-05T00:55:26.090Z,100.00
2022-10-05T00:58:19.188Z,100.00
2022-10-05T01:00:55.060Z,100.00
2022-10-05T01:03:34.338Z,100.00
2022-10-05T01:06:22.644Z,100.00
2022-10-05T01:09:02.261Z,100.00
2022-10-05T01:11:40.526Z,100.00
2022-10-05T01:14:22.894Z,100.00
2022-10-05T01:17:00.679Z,100.00
2022-10-05T01:19:48.449Z,100.00
2022-10-05T01:22:28.824Z,100.00
2022-10-05T01:25:24.562Z,100.00
2022-10-05T01:28:05.201Z,100.00
2022-10-05T01:30:57.675Z,100.00
2022-10-05T01:33:47.262Z,100.00
2022-10-05T01:36:35.340Z,100.00
2022-10-05T01:39:18.014Z,100.00
2022-10-05T01:41:57.611Z,100.00
2022-10-05T01:44:33.844Z,100.00
2022-10-05T01:47:12.267Z,100.00
2022-10-05T01:50:31.242Z,100.00
2022-10-05T01:53:22.530Z,100.00
2022-10-05T01:56:12.082Z,100.00
2022-10-05T01:58:44.181Z,100.00
2022-10-05T02:01:50.645Z,100.00
2022-10-05T02:05:00.559Z,100.00
2022-10-05T02:07:44.623Z,100.00
2022-10-05T02:10:39.451Z,100.00
2022-10-05T02:13:41.859Z,100.00
2022-10-05T02:16:41.694Z,100.00
2022-10-05T02:19:25.757Z,100.00
2022-10-05T02:22:07.172Z,100.00
2022-10-05T02:24:46.657Z,100.00
2022-10-05T02:27:20.552Z,100.00
2022-10-05T02:29:53.837Z,100.00
2022-10-05T02:32:25.311Z,100.00
2022-10-05T02:34:54.578Z,100.00
2022-10-05T02:37:54.804Z,100.00
2022-10-05T02:40:38.189Z,100.00
2022-10-05T02:43:13.489Z,100.00
2022-10-05T02:46:03.870Z,100.00
2022-10-05T02:48:40.547Z,100.00
2022-10-05T02:51:18.038Z,100.00
2022-10-05T02:54:24.889Z,100.00
2022-10-05T02:57:30.755Z,100.00
2022-10-05T03:00:18.363Z,100.00
2022-10-05T03:02:57.578Z,100.00
2022-10-05T03:05:40.484Z,100.00
2022-10-05T03:08:19.119Z,100.00
2022-10-05T03:11:13.873Z,100.00
2022-10-05T03:14:00.711Z,100.00
2022-10-05T03:16:48.085Z,100.00
2022-10-05T03:19:27.075Z,100.00
2022-10-05T03:22:01.517Z,100.00
2022-10-05T03:24:55.601Z,100.00
2022-10-05T03:27:44.354Z,100.00
2022-10-05T03:30:23.647Z,100.00
2022-10-05T03:33:12.518Z,100.00
2022-10-05T03:36:08.311Z,100.00
2022-10-05T03:38:45.643Z,100.00
2022-10-05T03:41:47.811Z,100.00
2022-10-05T03:44:38.050Z,100.00
2022-10-05T03:47:09.491Z,100.00
2022-10-05T03:50:03.497Z,100.00
2022-10-05T03:52:57.334Z,100.00
2022-10-05T03:55:50.043Z,100.00
2022-10-05T03:58:28.973Z,100.00
2022-10-05T04:01:03.113Z,100.00
2022-10-05T04:03:31.920Z,100.00
2022-10-05T04:06:04.606Z,100.00
2022-10-05T04:08:38.974Z,100.00
2022-10-05T04:11:14.374Z,100.00
2022-10-05T04:14:02.972Z,100.00
2022-10-05T04:16:56.094Z,100.00
2022-10-05T04:19:28.746Z,100.00
2022-10-05T04:22:08.325Z,100.00
2022-10-05T04:24:57.539Z,100.00
2022-10-05T04:27:33.011Z,100.00
2022-10-05T04:30:20.144Z,100.00
2022-10-05T04:32:59.551Z,100.00
2022-10-05T04:36:09.804Z,100.00
2022-10-05T04:39:00.126Z,100.00
2022-10-05T04:42:05.011Z,100.00
2022-10-05T04:44:49.238Z,100.00
2022-10-05T04:47:35.800Z,100.00
2022-10-05T04:50:29.593Z,100.00
2022-10-05T04:53:36.943Z,100.00
2022-10-05T04:56:20.109Z,100.00
2022-10-05T04:59:07.643Z,100.00
2022-10-05T05:01:54.647Z,100.00
2022-10-05T05:04:51.824Z,100.00
2022-10-05T05:07:37.321Z,100.00
2022-10-05T05:10:47.145Z,100.00
2022-10-05T05:13:52.599Z,100.00
2022-10-05T05:16:41.018Z,100.00
2022-10-05T05:19:18.692Z,100.00
2022-10-05T05:22:07.836Z,100.00
2022-10-05T05:24:47.386Z,100.00
2022-10-05T05:27:53.228Z,100.00
2022-10-05T05:30:27.597Z,100.00
2022-10-05T05:33:27.764Z,100.00
2022-10-05T05:36:08.572Z,100.00
2022-10-05T05:39:16.369Z,100.00
2022-10-05T05:42:22.139Z,100.00
2022-10-05T05:44:52.871Z,100.00
2022-10-05T05:47:27.439Z,100.00
2022-10-05T05:50:19.909Z,100.00
2022-10-05T05:52:53.183Z,100.00
2022-10-05T05:55:29.956Z,100.00
2022-10-05T05:58:04.344Z,100.00
2022-10-05T06:00:47.610Z,100.00
2022-10-05T06:03:26.109Z,100.00
2022-10-05T06:05:58.494Z,100.00
2022-10-05T06:08:37.115Z,100.00
2022-10-05T06:11:19.059Z,100.00
2022-10-05T06:13:47.714Z,100.00
2022-10-05T06:16:43.136Z,100.00
2022-10-05T06:19:16.599Z,100.00
2022-10-05T06:21:57.295Z,100.00
2022-10-05T06:24:38.430Z,100.00
2022-10-05T06:27:25.540Z,100.00
2022-10-05T06:29:54.562Z,100.00
2022-10-05T06:32:44.577Z,100.00
2022-10-05T06:35:35.025Z,100.00
2022-10-05T06:38:09.555Z,100.00
2022-10-05T06:41:02.183Z,100.00
2022-10-05T06:43:33.203Z,100.00
2022-10-05T06:46:28.437Z,100.00
2022-10-05T06:49:20.136Z,100.00
2022-10-05T06:52:15.739Z,100.00
2022-10-05T06:55:14.074Z,100.00
2022-10-05T06:58:22.293Z,100.00
2022-10-05T07:01:00.417Z,100.00
2022-10-05T07:04:05.608Z,100.00
2022-10-05T07:06:58.939Z,100.00
2022-10-05T07:09:30.441Z,100.00
2022-10-05T07:12:13.240Z,100.00
2022-10-05T07:15:07.129Z,100.00
2022-10-05T07:17:55.210Z,100.00
2022-10-05T07:20:49.062Z,100.00
2022-10-05T07:23:25.868Z,100.00
2022-10-05T07:26:19.449Z,100.00
2022-10-05T07:28:52.988Z,100.00
2022-10-05T07:31:58.762Z,100.00
2022-10-05T07:34:51.974Z,100.00
2022-10-05T07:38:01.180Z,100.00
2022-10-05T07:40:39.780Z,100.00
2022-10-05T07:43:23.096Z,100.00
2022-10-05T07:46:06.590Z,100.00
2022-10-05T07:49:15.382Z,100.00
2022-10-05T07:51:48.941Z,100.00
2022-10-05T07:54:19.767Z,100.00
2022-10-05T07:57:18.791Z,100.00
2022-10-05T08:00:06.997Z,100.00
2022-10-05T08:02:49.582Z,100.00
2022-10-05T08:05:27.003Z,100.00
2022-10-05T08:08:19.651Z,100.00
2022-10-05T08:11:02.538Z,100.00
2022-10-05T08:13:47.605Z,100.00
2022-10-05T08:16:17.192Z,100.00
2022-10-05T08:18:59.626Z,100.00
2022-10-05T08:21:37.096Z,100.00
2022-10-05T08:24:23.684Z,100.00
2022-10-05T08:27:20.676Z,100.00
2022-10-05T08:30:12.441Z,100.00
2022-10-05T08:32:59.190Z,100.00
2022-10-05T08:35:34.630Z,100.00
2022-10-05T08:38:12.513Z,100.00
2022-10-05T08:40:43.718Z,100.00
2022-10-05T08:43:46.852Z,100.00
2022-10-05T08:46:52.414Z,100.00
2022-10-05T08:49:35.034Z,100.00
2022-10-05T08:52:21.764Z,100.00
2022-10-05T08:55:27.468Z,100.00
2022-10-05T08:58:25.745Z,100.00
2022-10-05T09:01:15.915Z,100.00
2022-10-05T09:04:01.442Z,100.00
2022-10-05T09:07:04.402Z,100.00
2022-10-05T09:10:01.564Z,100.00
2022-10-05T09:12:48.152Z,100.00
2022-10-05T09:15:25.717Z,100.00
2022-10-05T09:18:32.410Z,100.00
2022-10-05T09:21:38.208Z,100.00
2022-10-05T09:24:57.501Z,100.00
2022-10-05T09:27:50.104Z,100.00
2022-10-05T09:30:29.011Z,100.00
2022-10-05T09:32:59.895Z,100.00
2022-10-05T09:36:05.493Z,100.00
2022-10-05T09:38:36.722Z,100.00
2022-10-05T09:41:20.035Z,100.00
2022-10-05T09:43:51.245Z,100.00
2022-10-05T09:46:37.611Z,100.00
2022-10-05T09:49:32.853Z,99.82
2022-10-05T09:52:20.613Z,98.83
2022-10-05T09:55:08.500Z,99.27
2022-10-05T09:57:55.455Z,98.08
2022-10-05T10:00:27.600Z,98.99
2022-10-05T10:03:19.818Z,95.99
2022-10-05T10:06:18.603Z,97.05
2022-10-05T10:09:25.571Z,93.82
2022-10-05T10:12:32.647Z,95.72
2022-10-05T10:15:38.760Z,93.97
2022-10-05T10:18:31.215Z,95.59
2022-10-05T10:21:26.614Z,94.13
2022-10-05T10:24:18.560Z,92.29
2022-10-05T10:26:58.766Z,91.45
2022-10-05T10:30:04.793Z,90.73
2022-10-05T10:32:57.528Z,93.58
2022-10-05T10:36:07.107Z,92.43
2022-10-05T10:38:58.792Z,90.78
2022-10-05T10:41:50.644Z,92.68
2022-10-05T10:44:56.524Z,90.86
2022-10-05T10:47:51.014Z,90.70
2022-10-05T10:50:28.451Z,91.77
2022-10-05T10:53:13.558Z,87.62
2022-10-05T10:56:19.580Z,87.95
2022-10-05T10:59:12.683Z,88.92
2022-10-05T11:02:08.273Z,86.74
2022-10-05T11:04:45.416Z,90.46
2022-10-05T11:07:45.063Z,91.32
2022-10-05T11:10:16.472Z,87.26
2022-10-05T11:13:22.243Z,86.74
2022-10-05T11:16:21.370Z,87.36
2022-10-05T11:19:07.740Z,91.70
2022-10-05T11:22:02.848Z,90.84
2022-10-05T11:25:07.879Z,91.02
2022-10-05T11:27:45.259Z,90.20
2022-10-05T11:30:31.743Z,92.18
2022-10-05T11:33:21.876Z,89.54
2022-10-05T11:36:18.031Z,89.47
2022-10-05T11:39:08.274Z,89.25
2022-10-05T11:41:57.835Z,86.62
2022-10-05T11:44:50.790Z,86.29
2022-10-05T11:47:45.962Z,84.77
2022-10-05T11:50:48.943Z,88.11
2022-10-05T11:54:01.596Z,87.61
2022-10-05T11:56:32.989Z,89.87
2022-10-05T11:59:40.007Z,87.99
2022-10-05T12:02:38.926Z,89.79
2022-10-05T12:05:32.449Z,88.27
2022-10-05T12:08:03.288Z,89.49
2022-10-05T12:11:01.179Z,87.76
2022-10-05T12:13:29.280Z,87.29
2022-10-05T12:16:15.493Z,88.79
2022-10-05T12:18:47.650Z,89.83
2022-10-05T12:21:24.064Z,90.58
2022-10-05T12:23:56.032Z,91.20
2022-10-05T12:26:28.204Z,91.87
2022-10-05T12:29:08.340Z,91.83
2022-10-05T12:31:53.976Z,91.65
2022-10-05T12:34:34.198Z,93.07
2022-10-05T12:37:09.900Z,94.02
2022-10-05T12:40:13.387Z,93.76
2022-10-05T12:43:05.011Z,94.97
2022-10-05T12:45:39.800Z,94.48
2022-10-05T12:48:29.882Z,94.16
2022-10-05T12:51:05.860Z,94.51
2022-10-05T12:53:55.940Z,92.59
2022-10-05T12:56:31.293Z,93.90
2022-10-05T12:59:20.617Z,92.91
2022-10-05T13:02:05.270Z,95.36
2022-10-05T13:04:53.357Z,92.72
2022-10-05T13:07:35.927Z,92.84
2022-10-05T13:10:28.351Z,92.66
2022-10-05T13:13:21.520Z,94.03
2022-10-05T13:16:11.855Z,93.48
2022-10-05T13:19:17.806Z,94.97
2022-10-05T13:22:10.916Z,93.97
2022-10-05T13:24:45.322Z,93.50
2022-10-05T13:27:19.199Z,95.33
2022-10-05T13:29:54.469Z,94.92
2022-10-05T13:32:37.049Z,95.07
2022-10-05T13:35:39.173Z,92.57
2022-10-05T13:38:28.473Z,94.17
2022-10-05T13:40:59.802Z,94.90
2022-10-05T13:43:39.584Z,94.88
2022-10-05T13:46:26.816Z,95.17
2022-10-05T13:49:19.899Z,96.23
2022-10-05T13:52:12.362Z,96.45
2022-10-05T13:54:54.473Z,97.37
2022-10-05T13:57:28.097Z,97.56
2022-10-05T14:00:03.673Z,98.28
2022-10-05T14:02:41.009Z,98.52
2022-10-05T14:05:16.456Z,96.70
2022-10-05T14:08:03.318Z,98.83
2022-10-05T14:10:45.510Z,99.09
2022-10-05T14:13:50.429Z,98.60
2022-10-05T14:16:26.624Z,99.45
2022-10-05T14:19:05.247Z,99.77
2022-10-05T14:21:44.537Z,99.99
2022-10-05T14:24:44.766Z,99.94
2022-10-05T14:27:26.365Z,100.00
2022-10-05T14:30:00.773Z,100.00
2022-10-05T14:32:35.125Z,100.00
2022-10-05T14:35:18.553Z,100.00
2022-10-05T14:37:57.182Z,100.00
2022-10-05T14:40:44.447Z,100.00
2022-10-05T14:43:21.707Z,100.00
2022-10-05T14:46:01.474Z,100.00
2022-10-05T14:48:40.450Z,100.00
2022-10-05T14:51:32.018Z,100.00
2022-10-05T14:54:01.678Z,100.00
2022-10-05T14:56:43.566Z,100.00
2022-10-05T14:59:33.171Z,100.00
2022-10-05T15:02:11.343Z,100.00
2022-10-05T15:04:58.800Z,100.00
2022-10-05T15:07:31.532Z,100.00
2022-10-05T15:10:26.823Z,100.00
2022-10-05T15:12:58.442Z,100.00
2022-10-05T15:15:37.603Z,100.00
2022-10-05T15:18:31.819Z,100.00
2022-10-05T15:21:42.641Z,100.00
2022-10-05T15:24:20.503Z,100.00
2022-10-05T15:26:57.613Z,100.00
2022-10-05T15:29:54.952Z,100.00
2022-10-05T15:32:41.941Z,100.00
2022-10-05T15:35:18.766Z,100.00
2022-10-05T15:38:21.159Z,100.00
2022-10-05T15:40:51.711Z,100.00
2022-10-05T15:43:23.637Z,100.00
2022-10-05T15:46:02.845Z,100.00
2022-10-05T15:49:00.840Z,100.00
2022-10-05T15:51:45.423Z,100.00
2022-10-05T15:54:44.478Z,100.00
2022-10-05T15:57:37.557Z,100.00
2022-10-05T16:00:12.354Z,100.00
2022-10-05T16:02:54.718Z,100.00
2022-10-05T16:06:03.351Z,100.00
2022-10-05T16:08:52.803Z,100.00
2022-10-05T16:11:32.409Z,100.00
2022-10-05T16:14:28.501Z,100.00
2022-10-05T16:17:11.644Z,100.00
2022-10-05T16:19:59.057Z,100.00
2022-10-05T16:22:43.700Z,100.00
2022-10-05T16:25:16.271Z,100.00
2022-10-05T16:27:59.529Z,100.00
2022-10-05T16:30:35.341Z,100.00
2022-10-05T16:33:09.501Z,100.00
2022-10-05T16:36:03.330Z,100.00
2022-10-05T16:38:55.740Z,100.00
2022-10-05T16:41:48.045Z,100.00
2022-10-05T16:44:34.294Z,100.00
2022-10-05T16:47:28.339Z,100.00
2022-10-05T16:50:21.519Z,100.00
2022-10-05T16:53:16.133Z,100.00
2022-10-05T16:55:49.537Z,100.00
2022-10-05T16:58:21.096Z,100.00
2022-10-05T17:01:05.819Z,100.00
2022-10-05T17:03:57.616Z,100.00
2022-10-05T17:06:28.192Z,100.00
2022-10-05T17:09:09.723Z,100.00
2022-10-05T17:12:11.805Z,100.00
2022-10-05T17:14:58.410Z,100.00
2022-10-05T17:17:32.042Z,100.00
2022-10-05T17:20:19.353Z,100.00
2022-10-05T17:22:55.541Z,100.00
2022-10-05T17:25:57.624Z,100.00
2022-10-05T17:29:14.758Z,100.00
2022-10-05T17:32:20.189Z,100.00
2022-10-05T17:35:03.172Z,100.00
2022-10-05T17:37:40.341Z,100.00
2022-10-05T17:40:30.631Z,100.00
2022-10-05T17:43:26.123Z,100.00
2022-10-05T17:46:07.791Z,100.00
2022-10-05T17:49:00.092Z,100.00
2022-10-05T17:51:47.120Z,100.00
2022-10-05T17:55:08.762Z,100.00
2022-10-05T17:57:37.439Z,100.00
2022-10-05T18:00:42.269Z,100.00
2022-10-05T18:03:41.224Z,100.00
2022-10-05T18:06:34.636Z,100.00
2022-10-05T18:09:12.055Z,100.00
2022-10-05T18:11:49.769Z,100.00
2022-10-05T18:14:27.020Z,100.00
2022-10-05T18:17:00.754Z,100.00
2022-10-05T18:19:33.596Z,100.00
2022-10-05T18:22:16.956Z,100.00
2022-10-05T18:25:05.953Z,100.00
2022-10-05T18:27:39.722Z,100.00
2022-10-05T18:30:27.029Z,100.00
2022-10-05T18:32:58.490Z,100.00
2022-10-05T18:35:53.327Z,100.00
2022-10-05T18:38:58.835Z,100.00
2022-10-05T18:41:30.112Z,100.00
2022-10-05T18:44:03.932Z,100.00
2022-10-05T18:46:51.172Z,100.00
2022-10-05T18:49:46.459Z,100.00
2022-10-05T18:52:25.266Z,100.00
2022-10-05T18:55:16.629Z,100.00
2022-10-05T18:57:55.775Z,100.00
2022-10-05T19:00:24.976Z,100.00
2022-10-05T19:03:04.078Z,100.00
2022-10-05T19:05:54.670Z,100.00
2022-10-05T19:08:41.143Z,100.00
2022-10-05T19:11:28.422Z,100.00
2022-10-05T19:14:21.006Z,100.00
2022-10-05T19:17:21.957Z,100.00
2022-10-05T19:20:00.583Z,100.00
2022-10-05T19:23:19.959Z,100.00
2022-10-05T19:25:48.619Z,100.00
2022-10-05T19:28:24.474Z,100.00
2022-10-05T19:31:11.535Z,100.00
2022-10-05T19:33:45.959Z,100.00
2022-10-05T19:36:49.003Z,100.00
2022-10-05T19:39:55.940Z,100.00
2022-10-05T19:43:04.028Z,100.00
2022-10-05T19:45:41.408Z,100.00
2022-10-05T19:48:28.255Z,100.00
2022-10-05T19:51:00.924Z,100.00
2022-10-05T19:53:46.100Z,100.00
2022-10-05T19:56:20.490Z,100.00
2022-10-05T19:58:50.116Z,100.00
2022-10-05T20:01:33.706Z,100.00
2022-10-05T20:04:02.109Z,100.00
2022-10-05T20:06:32.463Z,100.00
2022-10-05T20:09:19.710Z,100.00
2022-10-05T20:11:52.556Z,100.00
2022-10-05T20:14:29.225Z,100.00
2022-10-05T20:17:45.644Z,100.00
2022-10-05T20:20:25.358Z,100.00
2022-10-05T20:22:53.105Z,100.00
2022-10-05T20:25:21.247Z,100.00
2022-10-05T20:27:51.554Z,100.00
2022-10-05T20:30:25.047Z,100.00
2022-10-05T20:33:01.198Z,100.00
2022-10-05T20:35:33.006Z,100.00
2022-10-05T20:38:04.617Z,100.00
2022-10-05T20:40:36.071Z,100.00
2022-10-05T20:43:05.729Z,100.00
2022-10-05T20:45:33.881Z,100.00
2022-10-05T20:48:03.809Z,100.00
2022-10-05T20:50:32.644Z,100.00
2022-10-05T20:53:00.757Z,100.00
2022-10-05T20:55:31.809Z,100.00
2022-10-05T20:58:00.571Z,100.00
2022-10-05T21:00:52.043Z,100.00
2022-10-05T21:03:20.933Z,100.00
2022-10-05T21:05:48.914Z,100.00
2022-10-05T21:08:18.277Z,100.00
2022-10-05T21:10:46.236Z,100.00
2022-10-05T21:13:14.854Z,100.00
2022-10-05T21:15:45.108Z,100.00
2022-10-05T21:18:12.929Z,100.00
2022-10-05T21:20:45.614Z,100.00
2022-10-05T21:23:15.889Z,100.00
2022-10-05T21:25:43.805Z,100.00
2022-10-05T21:28:12.096Z,100.00
2022-10-05T21:30:40.466Z,100.00
2022-10-05T21:33:08.735Z,100.00
2022-10-05T21:35:37.294Z,100.00
2022-10-05T21:38:05.936Z,100.00
2022-10-05T21:40:34.455Z,100.00
2022-10-05T21:43:02.974Z,100.00
2022-10-05T21:45:31.632Z,100.00
2022-10-05T21:48:00.223Z,100.00
2022-10-05T21:50:28.158Z,100.00
2022-10-05T21:52:56.679Z,100.00
2022-10-05T21:55:24.585Z,100.00
2022-10-05T21:57:53.064Z,100.00
2022-10-05T22:00:21.654Z,100.00
2022-10-05T22:02:50.096Z,100.00
2022-10-05T22:05:18.169Z,100.00
2022-10-05T22:07:46.667Z,100.00
2022-10-05T22:10:15.109Z,100.00
2022-10-05T22:12:43.535Z,100.00
2022-10-05T22:15:12.064Z,100.00
2022-10-05T22:17:40.774Z,100.00
2022-10-05T22:20:13.070Z,100.00
2022-10-05T22:22:41.850Z,100.00
2022-10-05T22:25:10.216Z,100.00
2022-10-05T22:27:38.253Z,100.00
2022-10-05T22:30:07.784Z,100.00
2022-10-05T22:32:36.245Z,100.00
2022-10-05T22:35:07.842Z,100.00
2022-10-05T22:37:39.391Z,100.00
2022-10-05T22:40:08.666Z,100.00
2022-10-05T22:42:36.881Z,100.00
2022-10-05T22:45:10.196Z,100.00
2022-10-05T22:47:38.249Z,100.00
2022-10-05T22:50:07.338Z,100.00
2022-10-05T22:52:35.631Z,100.00
2022-10-05T22:55:05.096Z,100.00
2022-10-05T22:57:45.447Z,100.00
2022-10-05T23:00:13.578Z,100.00
2022-10-05T23:02:44.428Z,100.00
2022-10-05T23:05:17.550Z,100.00
2022-10-05T23:07:49.819Z,100.00
2022-10-05T23:10:18.991Z,100.00
2022-10-05T23:12:59.666Z,100.00
2022-10-05T23:15:28.884Z,100.00
2022-10-05T23:17:57.626Z,100.00
2022-10-05T23:20:26.169Z,100.00
2022-10-05T23:22:54.056Z,100.00
2022-10-05T23:25:22.833Z,100.00
2022-10-05T23:27:50.513Z,100.00
2022-10-05T23:30:18.726Z,100.00
2022-10-05T23:32:47.559Z,100.00
2022-10-05T23:35:16.706Z,100.00
2022-10-05T23:37:44.927Z,100.00
2022-10-05T23:40:14.574Z,100.00
2022-10-05T23:42:43.074Z,100.00
2022-10-05T23:45:12.663Z,100.00
2022-10-05T23:47:41.511Z,100.00
2022-10-05T23:50:10.806Z,100.00
2022-10-05T23:52:39.201Z,100.00
2022-10-05T23:55:08.084Z,100.00
2022-10-05T23:57:35.818Z,100.00
